createdAt,value
2018-06-12T00:01:52.408Z,91.40
2018-06-12T00:04:18.336Z,91.60
2018-06-12T00:06:44.242Z,91.80
2018-06-12T00:09:10.166Z,91.90
2018-06-12T00:11:36.094Z,91.60
2018-06-12T00:14:02.789Z,91.50
2018-06-12T00:16:28.710Z,91.50
2018-06-12T00:18:54.659Z,91.40
2018-06-12T00:21:20.596Z,91.30
2018-06-12T00:23:46.551Z,91.80
2018-06-12T00:26:12.468Z,91.50
2018-06-12T00:28:38.448Z,91.40
2018-06-12T00:31:04.386Z,91.20
2018-06-12T00:33:30.329Z,91.30
2018-06-12T00:35:56.968Z,91.40
2018-06-12T00:38:23.618Z,91.50
2018-06-12T00:40:50.300Z,91.50
2018-06-12T00:43:16.243Z,91.50
2018-06-12T00:45:42.167Z,91.70
2018-06-12T00:48:08.096Z,91.60
2018-06-12T00:50:34.044Z,92.30
2018-06-12T00:52:59.965Z,91.30
2018-06-12T00:55:25.928Z,91.20
2018-06-12T00:57:51.849Z,91.10
2018-06-12T01:00:17.810Z,91.10
2018-06-12T01:02:44.476Z,91.40
2018-06-12T01:05:10.407Z,91.40
2018-06-12T01:07:36.338Z,91.30
2018-06-12T01:10:02.276Z,91.60
2018-06-12T01:12:28.208Z,91.60
2018-06-12T01:14:54.153Z,91.70
2018-06-12T01:17:20.810Z,91.50
2018-06-12T01:19:46.760Z,91.50
2018-06-12T01:22:12.692Z,91.50
2018-06-12T01:24:38.624Z,91.60
2018-06-12T01:27:04.557Z,91.70
2018-06-12T01:29:30.481Z,91.80
2018-06-12T01:31:56.440Z,91.50
2018-06-12T01:34:23.101Z,91.40
2018-06-12T01:36:49.037Z,91.40
2018-06-12T01:39:14.941Z,91.20
2018-06-12T01:41:40.981Z,91.60
2018-06-12T01:44:06.907Z,91.20
2018-06-12T01:46:32.864Z,91.00
2018-06-12T01:48:58.787Z,91.20
2018-06-12T01:51:24.692Z,90.90
2018-06-12T01:53:50.651Z,91.30
2018-06-12T01:56:17.307Z,91.40
2018-06-12T01:58:43.244Z,91.40
2018-06-12T02:01:09.158Z,91.30
2018-06-12T02:03:35.092Z,91.10
2018-06-12T02:06:00.989Z,91.30
2018-06-12T02:08:27.662Z,91.10
2018-06-12T02:10:53.575Z,91.00
2018-06-12T02:13:19.507Z,91.10
2018-06-12T02:15:45.435Z,91.60
2018-06-12T02:18:11.398Z,91.30
2018-06-12T02:20:38.047Z,91.20
2018-06-12T02:23:04.700Z,91.50
2018-06-12T02:25:30.635Z,91.50
2018-06-12T02:27:56.560Z,91.70
2018-06-12T02:30:22.501Z,92.00
2018-06-12T02:32:48.437Z,92.10
2018-06-12T02:35:14.388Z,92.60
2018-06-12T02:37:41.049Z,91.90
2018-06-12T02:40:06.975Z,91.90
2018-06-12T02:42:32.909Z,92.20
2018-06-12T02:44:58.856Z,92.10
2018-06-12T02:47:24.795Z,92.00
2018-06-12T02:49:50.752Z,92.10
2018-06-12T02:52:16.682Z,92.00
2018-06-12T02:54:42.630Z,91.90
2018-06-12T02:57:08.581Z,91.90
2018-06-12T02:59:34.502Z,91.90
2018-06-12T03:02:00.485Z,92.30
2018-06-12T03:04:26.399Z,92.00
2018-06-12T03:06:52.363Z,92.10
2018-06-12T03:09:18.270Z,92.50
2018-06-12T03:11:44.959Z,92.50
2018-06-12T03:14:11.609Z,92.70
2018-06-12T03:16:37.554Z,92.70
2018-06-12T03:19:03.448Z,92.80
2018-06-12T03:21:29.396Z,92.40
2018-06-12T03:23:55.311Z,92.30
2018-06-12T03:26:21.247Z,92.50
2018-06-12T03:28:47.171Z,91.90
2018-06-12T03:31:13.115Z,92.50
2018-06-12T03:33:39.015Z,91.90
2018-06-12T03:36:04.956Z,92.20
2018-06-12T03:38:30.858Z,92.10
2018-06-12T03:40:56.744Z,92.10
2018-06-12T03:43:22.695Z,92.10
2018-06-12T03:45:48.641Z,92.20
2018-06-12T03:48:14.622Z,91.90
2018-06-12T03:50:40.524Z,91.90
2018-06-12T03:53:06.481Z,91.50
2018-06-12T03:55:32.418Z,91.70
2018-06-12T03:57:58.372Z,91.70
2018-06-12T04:00:25.042Z,91.30
2018-06-12T04:02:51.000Z,91.30
2018-06-12T04:05:16.923Z,91.40
2018-06-12T04:07:42.894Z,91.00
2018-06-12T04:10:09.559Z,91.40
2018-06-12T04:12:35.510Z,91.40
2018-06-12T04:15:01.489Z,91.30
2018-06-12T04:17:27.448Z,90.90
2018-06-12T04:19:53.378Z,91.40
2018-06-12T04:22:19.325Z,91.40
2018-06-12T04:24:45.260Z,91.00
2018-06-12T04:27:11.917Z,91.10
2018-06-12T04:29:37.852Z,91.10
2018-06-12T04:32:03.760Z,91.30
2018-06-12T04:34:29.715Z,91.30
2018-06-12T04:36:55.624Z,91.00
2018-06-12T04:39:21.563Z,90.80
2018-06-12T04:41:47.465Z,91.20
2018-06-12T04:44:13.395Z,91.60
2018-06-12T04:46:39.289Z,91.20
2018-06-12T04:49:05.204Z,91.30
2018-06-12T04:51:31.844Z,91.20
2018-06-12T04:53:57.807Z,91.20
2018-06-12T04:56:23.747Z,90.70
2018-06-12T04:58:49.715Z,91.00
2018-06-12T05:01:15.646Z,90.90
2018-06-12T05:03:41.561Z,90.70
2018-06-12T05:06:07.506Z,91.40
2018-06-12T05:08:33.428Z,91.60
2018-06-12T05:10:59.365Z,90.90
2018-06-12T05:13:25.275Z,90.50
2018-06-12T05:15:51.230Z,90.60
2018-06-12T05:18:17.170Z,90.70
2018-06-12T05:20:43.837Z,90.90
2018-06-12T05:23:09.763Z,90.90
2018-06-12T05:25:35.787Z,90.80
2018-06-12T05:28:02.416Z,90.60
2018-06-12T05:30:28.400Z,90.60
2018-06-12T05:32:54.385Z,90.80
2018-06-12T05:35:20.374Z,90.40
2018-06-12T05:37:46.421Z,90.90
2018-06-12T05:40:12.378Z,90.60
2018-06-12T05:42:38.318Z,90.10
2018-06-12T05:45:05.004Z,90.10
2018-06-12T05:47:30.947Z,90.10
2018-06-12T05:49:56.861Z,90.30
2018-06-12T05:52:22.834Z,90.50
2018-06-12T05:54:49.509Z,90.70
2018-06-12T05:57:15.487Z,90.70
2018-06-12T05:59:42.157Z,90.80
2018-06-12T06:02:08.105Z,90.80
2018-06-12T06:04:34.051Z,91.20
2018-06-12T06:06:59.981Z,91.40
2018-06-12T06:09:25.942Z,91.40
2018-06-12T06:11:51.876Z,91.50
2018-06-12T06:14:17.837Z,92.00
2018-06-12T06:16:43.754Z,91.20
2018-06-12T06:19:09.695Z,90.70
2018-06-12T06:21:35.641Z,90.80
2018-06-12T06:24:02.332Z,89.80
2018-06-12T06:26:28.279Z,89.80
2018-06-12T06:28:54.217Z,90.00
2018-06-12T06:31:20.882Z,90.60
2018-06-12T06:33:46.830Z,90.60
2018-06-12T06:36:12.826Z,90.40
2018-06-12T06:38:39.493Z,90.60
2018-06-12T06:41:05.424Z,90.60
2018-06-12T06:43:31.375Z,90.40
2018-06-12T06:45:58.063Z,90.40
2018-06-12T06:48:23.993Z,90.40
2018-06-12T06:50:49.950Z,90.40
2018-06-12T06:53:15.868Z,88.60
2018-06-12T06:55:41.846Z,88.20
2018-06-12T06:58:07.765Z,87.00
2018-06-12T07:00:33.714Z,86.90
2018-06-12T07:02:59.640Z,86.60
2018-06-12T07:05:25.601Z,86.80
2018-06-12T07:07:52.262Z,85.70
2018-06-12T07:10:18.201Z,85.60
2018-06-12T07:12:44.110Z,82.30
2018-06-12T07:15:10.076Z,83.80
2018-06-12T07:17:35.984Z,83.00
2018-06-12T07:20:01.915Z,84.10
2018-06-12T07:22:27.839Z,84.10
2018-06-12T07:24:53.747Z,84.50
2018-06-12T07:27:19.712Z,85.30
2018-06-12T07:29:46.383Z,83.90
2018-06-12T07:32:12.382Z,83.90
2018-06-12T07:34:38.275Z,84.10
2018-06-12T07:37:04.216Z,84.80
2018-06-12T07:39:30.885Z,83.40
2018-06-12T07:41:56.856Z,83.40
2018-06-12T07:44:22.786Z,83.50
2018-06-12T07:46:48.716Z,85.60
2018-06-12T07:49:14.649Z,86.20
2018-06-12T07:51:41.361Z,84.40
2018-06-12T07:54:07.282Z,84.40
2018-06-12T07:56:33.211Z,84.20
2018-06-12T07:58:59.136Z,84.40
2018-06-12T08:01:25.073Z,82.10
2018-06-12T08:03:51.755Z,78.30
2018-06-12T08:06:17.671Z,78.20
2018-06-12T08:08:43.624Z,78.70
2018-06-12T08:11:09.592Z,77.70
2018-06-12T08:13:35.537Z,76.60
2018-06-12T08:16:01.488Z,78.80
2018-06-12T08:18:27.436Z,78.20
2018-06-12T08:20:54.110Z,79.30
2018-06-12T08:23:20.055Z,78.60
2018-06-12T08:25:46.003Z,78.40
2018-06-12T08:28:12.722Z,78.70
2018-06-12T08:30:38.720Z,78.60
2018-06-12T08:33:04.625Z,79.00
2018-06-12T08:35:30.609Z,78.50
2018-06-12T08:37:56.515Z,77.70
2018-06-12T08:40:22.457Z,79.00
2018-06-12T08:42:48.397Z,79.10
2018-06-12T08:45:14.345Z,77.70
2018-06-12T08:47:40.296Z,78.80
2018-06-12T08:50:06.977Z,79.30
2018-06-12T08:52:32.891Z,78.60
2018-06-12T08:54:58.820Z,77.40
2018-06-12T08:57:25.516Z,77.80
2018-06-12T08:59:51.451Z,77.70
2018-06-12T09:02:17.409Z,79.10
2018-06-12T09:04:44.079Z,78.50
2018-06-12T09:07:10.034Z,78.40
2018-06-12T09:09:35.947Z,78.00
2018-06-12T09:12:01.867Z,76.80
2018-06-12T09:14:27.821Z,75.10
2018-06-12T09:16:53.757Z,75.30
2018-06-12T09:19:20.450Z,74.80
2018-06-12T09:21:46.391Z,74.80
2018-06-12T09:24:12.317Z,74.80
2018-06-12T09:26:38.259Z,71.70
2018-06-12T09:29:04.920Z,69.10
2018-06-12T09:31:30.892Z,69.20
2018-06-12T09:33:56.828Z,71.50
2018-06-12T09:36:22.765Z,70.40
2018-06-12T09:38:49.459Z,71.70
2018-06-12T09:41:15.390Z,71.70
2018-06-12T09:43:41.343Z,71.60
2018-06-12T09:46:08.019Z,70.70
2018-06-12T09:48:33.994Z,70.60
2018-06-12T09:50:59.909Z,70.20
2018-06-12T09:53:25.833Z,69.80
2018-06-12T09:55:51.792Z,69.00
2018-06-12T09:58:17.735Z,69.10
2018-06-12T10:00:43.665Z,69.90
2018-06-12T10:03:09.596Z,72.70
2018-06-12T10:05:35.553Z,73.80
2018-06-12T10:08:01.498Z,74.20
2018-06-12T10:10:27.495Z,75.10
2018-06-12T10:12:53.435Z,72.70
2018-06-12T10:15:20.147Z,74.00
2018-06-12T10:17:46.077Z,74.00
2018-06-12T10:20:12.016Z,74.90
2018-06-12T10:22:38.712Z,75.70
2018-06-12T10:25:04.644Z,75.60
2018-06-12T10:27:30.581Z,76.30
2018-06-12T10:29:56.497Z,79.10
2018-06-12T10:32:22.448Z,79.10
2018-06-12T10:34:49.117Z,82.10
2018-06-12T10:37:15.152Z,82.00
2018-06-12T10:39:41.024Z,81.80
2018-06-12T10:42:07.695Z,78.90
2018-06-12T10:44:33.628Z,78.80
2018-06-12T10:46:59.533Z,76.60
2018-06-12T10:49:25.501Z,75.90
2018-06-12T10:51:51.433Z,77.20
2018-06-12T10:54:17.361Z,75.20
2018-06-12T10:56:43.288Z,76.80
2018-06-12T10:59:09.986Z,72.80
2018-06-12T11:01:35.912Z,72.70
2018-06-12T11:04:01.864Z,73.50
2018-06-12T11:06:27.787Z,74.50
2018-06-12T11:08:53.729Z,74.00
2018-06-12T11:11:20.416Z,74.80
2018-06-12T11:13:46.351Z,74.80
2018-06-12T11:16:12.287Z,75.00
2018-06-12T11:18:38.192Z,74.70
2018-06-12T11:21:04.132Z,74.00
2018-06-12T11:23:30.052Z,75.50
2018-06-12T11:25:56.027Z,75.50
2018-06-12T11:28:21.935Z,77.80
2018-06-12T11:30:47.885Z,78.90
2018-06-12T11:33:13.809Z,77.10
2018-06-12T11:35:39.759Z,77.00
2018-06-12T11:38:05.686Z,78.80
2018-06-12T11:40:31.639Z,78.80
2018-06-12T11:42:58.292Z,79.10
2018-06-12T11:45:24.231Z,79.00
2018-06-12T11:47:50.166Z,79.90
2018-06-12T11:50:16.115Z,79.10
2018-06-12T11:52:42.045Z,79.60
2018-06-12T11:55:07.991Z,80.20
2018-06-12T11:57:33.922Z,77.40
2018-06-12T11:59:59.852Z,76.10
2018-06-12T12:02:25.806Z,76.30
2018-06-12T12:04:51.734Z,76.60
2018-06-12T12:07:17.686Z,75.80
2018-06-12T12:09:44.347Z,76.40
2018-06-12T12:12:10.301Z,76.40
2018-06-12T12:14:36.222Z,76.10
2018-06-12T12:17:02.180Z,79.20
2018-06-12T12:19:28.849Z,79.50
2018-06-12T12:21:54.821Z,79.40
2018-06-12T12:24:20.755Z,80.90
2018-06-12T12:26:46.708Z,81.00
2018-06-12T12:29:13.392Z,82.50
2018-06-12T12:31:39.340Z,82.60
2018-06-12T12:34:05.296Z,83.00
2018-06-12T12:36:31.229Z,82.70
2018-06-12T12:38:57.209Z,83.50
2018-06-12T12:41:23.891Z,81.90
2018-06-12T12:43:49.830Z,81.80
2018-06-12T12:46:15.745Z,82.00
2018-06-12T12:48:41.716Z,79.40
2018-06-12T12:51:09.223Z,82.20
2018-06-12T12:53:35.228Z,82.10
2018-06-12T12:56:01.154Z,83.80
2018-06-12T12:58:27.091Z,83.60
2018-06-12T13:00:53.016Z,82.40
2018-06-12T13:03:18.983Z,82.90
2018-06-12T13:05:45.693Z,81.50
2018-06-12T13:08:11.667Z,81.50
2018-06-12T13:10:37.593Z,83.90
2018-06-12T13:13:04.272Z,83.60
2018-06-12T13:15:30.232Z,83.50
2018-06-12T13:17:56.918Z,84.10
2018-06-12T13:20:22.881Z,84.10
2018-06-12T13:22:49.554Z,85.10
2018-06-12T13:25:15.504Z,85.70
2018-06-12T13:27:41.416Z,86.30
2018-06-12T13:30:07.359Z,86.60
2018-06-12T13:32:33.305Z,86.70
2018-06-12T13:34:59.241Z,87.30
2018-06-12T13:37:25.163Z,87.70
2018-06-12T13:39:51.873Z,89.60
2018-06-12T13:42:17.835Z,89.50
2018-06-12T13:44:44.519Z,88.10
2018-06-12T13:47:10.435Z,88.10
2018-06-12T13:49:36.354Z,87.40
2018-06-12T13:52:02.308Z,88.70
2018-06-12T13:54:28.241Z,89.60
2018-06-12T13:56:54.202Z,89.40
2018-06-12T13:59:20.135Z,88.90
2018-06-12T14:01:46.062Z,87.10
2018-06-12T14:04:12.003Z,87.50
2018-06-12T14:06:37.946Z,87.50
2018-06-12T14:09:03.871Z,86.60
2018-06-12T14:11:29.853Z,85.50
2018-06-12T14:13:55.777Z,85.30
2018-06-12T14:16:21.718Z,83.00
2018-06-12T14:18:47.634Z,82.00
2018-06-12T14:21:13.601Z,82.70
2018-06-12T14:23:39.544Z,80.80
2018-06-12T14:26:05.476Z,82.30
2018-06-12T14:28:31.440Z,83.10
2018-06-12T14:30:57.419Z,83.80
2018-06-12T14:33:23.377Z,84.10
2018-06-12T14:35:49.328Z,84.10
2018-06-12T14:38:16.053Z,83.70
2018-06-12T14:40:42.006Z,83.60
2018-06-12T14:43:08.687Z,83.40
2018-06-12T14:45:34.629Z,83.20
2018-06-12T14:48:00.569Z,84.30
2018-06-12T14:50:26.504Z,83.70
2018-06-12T14:52:53.200Z,82.40
2018-06-12T14:55:19.125Z,82.40
2018-06-12T14:57:45.075Z,82.30
2018-06-12T15:00:11.758Z,79.40
2018-06-12T15:02:37.716Z,79.40
2018-06-12T15:05:03.650Z,80.60
2018-06-12T15:07:29.563Z,79.90
2018-06-12T15:09:55.516Z,79.40
2018-06-12T15:12:22.169Z,78.90
2018-06-12T15:14:48.123Z,78.80
2018-06-12T15:17:14.048Z,79.80
2018-06-12T15:19:40.022Z,80.70
2018-06-12T15:22:12.953Z,81.80
2018-06-12T15:24:38.892Z,83.80
2018-06-12T15:27:04.809Z,84.00
2018-06-12T15:29:30.748Z,83.70
2018-06-12T15:31:56.658Z,83.70
2018-06-12T15:34:23.337Z,82.50
2018-06-12T15:36:50.022Z,82.90
2018-06-12T15:39:15.975Z,82.80
2018-06-12T15:41:41.889Z,82.10
2018-06-12T15:44:07.817Z,81.00
2018-06-12T15:46:33.767Z,79.90
2018-06-12T15:49:00.429Z,80.80
2018-06-12T15:51:26.397Z,80.80
2018-06-12T15:53:52.327Z,80.10
2018-06-12T15:56:18.280Z,79.40
2018-06-12T15:58:44.206Z,79.80
2018-06-12T16:01:10.164Z,77.60
2018-06-12T16:03:36.103Z,79.20
2018-06-12T16:06:02.039Z,79.60
2018-06-12T16:08:27.975Z,79.50
2018-06-12T16:10:54.659Z,78.40
2018-06-12T16:13:20.587Z,78.40
2018-06-12T16:15:46.510Z,78.70
2018-06-12T16:18:12.455Z,77.80
2018-06-12T16:20:38.406Z,78.40
2018-06-12T16:23:05.083Z,78.90
2018-06-12T16:25:30.994Z,78.80
2018-06-12T16:27:56.960Z,76.90
2018-06-12T16:30:22.906Z,75.90
2018-06-12T16:32:49.581Z,76.60
2018-06-12T16:35:15.526Z,76.50
2018-06-12T16:37:41.502Z,77.10
2018-06-12T16:40:07.421Z,76.10
2018-06-12T16:42:34.091Z,76.30
2018-06-12T16:45:00.055Z,76.20
2018-06-12T16:47:26.037Z,76.50
2018-06-12T16:49:52.848Z,78.70
2018-06-12T16:52:18.876Z,78.70
2018-06-12T16:54:44.911Z,78.70
2018-06-12T16:57:11.042Z,78.90
2018-06-12T16:59:37.095Z,79.10
2018-06-12T17:02:03.835Z,78.50
2018-06-12T17:04:30.554Z,78.60
2018-06-12T17:06:57.290Z,78.40
2018-06-12T17:09:23.241Z,78.40
2018-06-12T17:11:49.194Z,78.30
2018-06-12T17:14:15.151Z,79.20
2018-06-12T17:16:41.200Z,78.80
2018-06-12T17:19:08.001Z,80.10
2018-06-12T17:21:33.980Z,80.10
2018-06-12T17:23:59.999Z,80.50
2018-06-12T17:26:26.712Z,81.50
2018-06-12T17:28:52.631Z,81.50
2018-06-12T17:31:18.565Z,82.90
2018-06-12T17:33:44.483Z,82.70
2018-06-12T17:36:10.442Z,82.40
2018-06-12T17:38:36.412Z,82.90
2018-06-12T17:41:02.455Z,84.10
2018-06-12T17:43:28.450Z,83.90
2018-06-12T17:45:54.403Z,83.70
2018-06-12T17:48:20.360Z,83.90
2018-06-12T17:50:46.296Z,84.40
2018-06-12T17:53:12.969Z,85.70
2018-06-12T17:55:38.916Z,85.60
2018-06-12T17:58:04.866Z,87.70
2018-06-12T18:00:30.844Z,90.10
2018-06-12T18:02:56.761Z,90.60
2018-06-12T18:05:22.692Z,91.00
2018-06-12T18:07:48.636Z,91.20
2018-06-12T18:10:14.572Z,91.40
2018-06-12T18:12:40.524Z,91.50
2018-06-12T18:15:07.181Z,91.00
2018-06-12T18:17:33.131Z,90.90
2018-06-12T18:19:59.062Z,90.80
2018-06-12T18:22:25.018Z,90.50
2018-06-12T18:24:51.719Z,90.40
2018-06-12T18:27:17.674Z,90.40
2018-06-12T18:29:44.380Z,90.70
2018-06-12T18:32:10.338Z,90.70
2018-06-12T18:34:36.280Z,89.50
2018-06-12T18:37:02.220Z,90.10
2018-06-12T18:39:28.181Z,89.80
2018-06-12T18:41:54.118Z,89.90
2018-06-12T18:44:20.099Z,90.00
2018-06-12T18:46:46.014Z,89.40
2018-06-12T18:49:12.062Z,90.20
2018-06-12T18:51:37.986Z,90.30
2018-06-12T18:54:03.948Z,90.50
2018-06-12T18:56:30.611Z,90.40
2018-06-12T18:58:56.594Z,90.40
2018-06-12T19:01:22.538Z,90.80
2018-06-12T19:03:49.221Z,90.70
2018-06-12T19:06:15.144Z,90.70
2018-06-12T19:08:41.110Z,90.90
2018-06-12T19:11:07.785Z,91.20
2018-06-12T19:13:33.763Z,91.20
2018-06-12T19:15:59.693Z,93.20
2018-06-12T19:18:25.613Z,94.60
2018-06-12T19:20:52.345Z,96.00
2018-06-12T19:23:18.266Z,96.00
2018-06-12T19:25:44.227Z,95.90
2018-06-12T19:28:10.163Z,95.80
2018-06-12T19:30:36.135Z,96.60
2018-06-12T19:33:02.065Z,96.20
2018-06-12T19:35:28.018Z,96.80
2018-06-12T19:37:53.968Z,97.30
2018-06-12T19:40:19.969Z,97.50
2018-06-12T19:42:45.894Z,97.20
2018-06-12T19:45:11.864Z,97.70
2018-06-12T19:47:37.815Z,97.00
2018-06-12T19:50:04.518Z,98.90
2018-06-12T19:52:30.438Z,98.90
2018-06-12T19:54:56.372Z,99.20
2018-06-12T19:57:23.059Z,98.50
2018-06-12T19:59:49.002Z,98.50
2018-06-12T20:02:14.967Z,97.80
2018-06-12T20:04:41.690Z,98.50
2018-06-12T20:07:07.623Z,98.50
2018-06-12T20:09:33.551Z,98.70
2018-06-12T20:12:00.233Z,98.60
2018-06-12T20:14:26.183Z,98.60
2018-06-12T20:16:52.228Z,99.40
2018-06-12T20:19:18.173Z,97.40
2018-06-12T20:21:44.166Z,97.30
2018-06-12T20:24:10.101Z,97.20
2018-06-12T20:26:36.805Z,97.50
2018-06-12T20:29:02.755Z,97.50
2018-06-12T20:31:28.737Z,97.20
2018-06-12T20:33:54.684Z,97.30
2018-06-12T20:36:20.637Z,97.60
2018-06-12T20:38:47.332Z,96.50
2018-06-12T20:41:13.265Z,96.40
2018-06-12T20:43:39.246Z,96.80
2018-06-12T20:46:05.181Z,96.60
2018-06-12T20:48:31.145Z,97.00
2018-06-12T20:50:57.839Z,97.90
2018-06-12T20:53:23.824Z,97.80
2018-06-12T20:55:50.493Z,96.50
2018-06-12T20:58:16.450Z,96.50
2018-06-12T21:00:42.401Z,96.20
2018-06-12T21:03:09.173Z,96.10
2018-06-12T21:05:35.153Z,96.10
2018-06-12T21:08:01.113Z,96.70
2018-06-12T21:10:27.820Z,97.00
2018-06-12T21:12:53.768Z,97.00
2018-06-12T21:15:20.465Z,97.20
2018-06-12T21:17:46.382Z,97.10
2018-06-12T21:20:13.097Z,97.10
2018-06-12T21:22:39.015Z,97.10
2018-06-12T21:25:04.964Z,97.40
2018-06-12T21:27:30.886Z,97.70
2018-06-12T21:29:56.845Z,97.60
2018-06-12T21:32:23.514Z,96.90
2018-06-12T21:34:49.462Z,96.90
2018-06-12T21:37:15.387Z,97.00
2018-06-12T21:39:41.310Z,96.90
2018-06-12T21:42:07.260Z,96.80
2018-06-12T21:44:33.203Z,96.70
2018-06-12T21:46:59.894Z,96.70
2018-06-12T21:49:25.840Z,96.70
2018-06-12T21:51:51.791Z,96.80
2018-06-12T21:54:17.747Z,96.60
2018-06-12T21:56:43.758Z,96.80
2018-06-12T21:59:09.669Z,97.00
2018-06-12T22:01:35.604Z,96.80
2018-06-12T22:04:01.528Z,96.90
2018-06-12T22:06:27.484Z,96.70
2018-06-12T22:08:53.403Z,97.20
2018-06-12T22:11:19.363Z,97.40
2018-06-12T22:13:46.054Z,96.20
2018-06-12T22:16:11.983Z,96.10
2018-06-12T22:18:37.930Z,96.50
2018-06-12T22:21:04.604Z,95.60
2018-06-12T22:23:30.539Z,95.60
2018-06-12T22:25:56.491Z,96.10
2018-06-12T22:28:22.445Z,95.90
2018-06-12T22:30:49.171Z,95.70
2018-06-12T22:33:15.084Z,95.70
2018-06-12T22:35:41.035Z,96.20
2018-06-12T22:38:07.719Z,96.10
2018-06-12T22:40:33.646Z,96.10
2018-06-12T22:42:59.576Z,95.90
2018-06-12T22:45:25.526Z,95.40
2018-06-12T22:47:52.197Z,95.80
2018-06-12T22:50:18.126Z,95.80
2018-06-12T22:52:44.052Z,95.50
2018-06-12T22:55:09.999Z,95.90
2018-06-12T22:57:35.936Z,95.60
2018-06-12T23:00:02.635Z,95.50
2018-06-12T23:02:28.596Z,95.50
2018-06-12T23:04:54.541Z,94.80
2018-06-12T23:07:21.212Z,95.30
2018-06-12T23:09:47.171Z,95.30
2018-06-12T23:12:13.111Z,95.00
2018-06-12T23:14:39.093Z,94.80
2018-06-12T23:17:05.159Z,94.90
2018-06-12T23:19:30.978Z,95.00
2018-06-12T23:21:56.917Z,94.90
2018-06-12T23:24:23.574Z,95.60
2018-06-12T23:26:49.545Z,95.60
2018-06-12T23:29:15.487Z,95.80
2018-06-12T23:31:42.193Z,95.30
2018-06-12T23:34:08.140Z,95.30
2018-06-12T23:36:34.075Z,95.40
2018-06-12T23:39:00.009Z,95.50
2018-06-12T23:41:26.700Z,96.00
2018-06-12T23:43:52.657Z,96.00
2018-06-12T23:46:19.347Z,96.20
2018-06-12T23:48:45.264Z,96.20
2018-06-12T23:51:11.182Z,96.30
2018-06-12T23:53:37.144Z,96.40
2018-06-12T23:56:03.074Z,96.20
2018-06-12T23:58:29.025Z,96.10
